createdAt,value
2023-04-16T15:34:35.736Z,19.30
2023-04-16T15:37:02.291Z,13.90
2023-04-16T15:39:28.864Z,12.60
2023-04-16T15:42:01.543Z,15.50
2023-04-16T15:44:31.081Z,13.70
2023-04-16T15:46:57.614Z,11.40
2023-04-16T15:49:24.792Z,12.70
2023-04-16T15:51:52.012Z,9.70
2023-04-16T15:54:18.805Z,10.00
2023-04-16T15:56:46.615Z,11.60
2023-04-16T15:59:13.598Z,9.30
2023-04-16T16:01:40.257Z,10.20
2023-04-16T16:04:08.076Z,11.10
2023-04-16T16:06:35.043Z,9.10
2023-04-16T16:09:01.831Z,8.50
2023-04-16T16:11:28.425Z,9.50
2023-04-16T16:13:55.098Z,10.90
2023-04-16T16:16:21.923Z,12.00
2023-04-16T16:18:48.769Z,10.20
2023-04-16T16:21:15.207Z,10.70
2023-04-16T16:23:42.078Z,9.90
2023-04-16T16:26:09.239Z,10.70
2023-04-16T16:28:37.929Z,8.80
2023-04-16T16:31:05.955Z,10.80
2023-04-16T16:33:32.854Z,10.30
2023-04-16T16:35:59.334Z,11.80
2023-04-16T16:38:25.873Z,11.30
2023-04-16T16:40:52.348Z,11.10
2023-04-16T16:43:18.852Z,7.30
2023-04-16T16:45:45.339Z,9.60
2023-04-16T16:48:11.941Z,8.00
2023-04-16T16:50:38.541Z,11.20
2023-04-16T16:53:05.442Z,9.30
2023-04-16T16:55:31.891Z,6.90
2023-04-16T16:57:58.654Z,8.50
2023-04-16T17:00:25.558Z,7.70
2023-04-16T17:02:52.632Z,7.30
2023-04-16T17:05:19.900Z,8.00
2023-04-16T17:07:46.771Z,9.60
2023-04-16T17:10:20.074Z,9.20
2023-04-16T17:15:18.578Z,8.70
2023-04-16T17:17:47.050Z,9.80
2023-04-16T17:20:14.328Z,9.30
2023-04-16T17:22:41.113Z,10.00
2023-04-16T17:25:08.285Z,8.20
2023-04-16T17:27:34.869Z,9.00
2023-04-16T17:30:02.095Z,7.10
2023-04-16T17:32:29.707Z,7.20
2023-04-16T17:34:56.554Z,10.60
2023-04-16T17:37:23.495Z,8.70
2023-04-16T17:39:50.491Z,9.80
2023-04-16T17:42:17.396Z,7.00
2023-04-16T17:44:44.169Z,7.90
2023-04-16T17:47:10.831Z,11.40
2023-04-16T17:49:37.319Z,11.40
2023-04-16T17:52:04.053Z,9.30
2023-04-16T17:54:30.613Z,6.70
2023-04-16T17:56:57.632Z,9.10
2023-04-16T17:59:24.193Z,7.60
2023-04-16T18:01:50.989Z,10.40
2023-04-16T18:04:18.152Z,8.30
2023-04-16T18:06:45.156Z,8.80
2023-04-16T18:09:12.168Z,7.80
2023-04-16T18:11:38.638Z,7.80
2023-04-16T18:14:05.253Z,7.70
2023-04-16T18:16:32.339Z,7.60
2023-04-16T18:18:59.125Z,8.30
2023-04-16T18:21:26.012Z,8.70
2023-04-16T18:23:52.460Z,7.80
2023-04-16T18:26:22.505Z,5.70
2023-04-16T18:28:49.483Z,7.60
2023-04-16T18:31:18.988Z,6.90
2023-04-16T18:33:56.449Z,8.40
2023-04-16T18:36:23.771Z,7.00
2023-04-16T18:39:00.905Z,7.90
2023-04-16T18:41:28.717Z,6.50
2023-04-16T18:43:55.388Z,6.90
2023-04-16T18:46:21.911Z,6.60
2023-04-16T18:48:48.481Z,5.50
2023-04-16T18:51:16.291Z,6.00
2023-04-16T18:53:45.437Z,7.80
2023-04-16T18:56:12.383Z,6.90
2023-04-16T18:58:38.864Z,6.40
2023-04-16T19:01:07.815Z,8.00
2023-04-16T19:03:34.586Z,11.90
2023-04-16T19:06:01.613Z,8.30
2023-04-16T19:08:28.136Z,7.60
2023-04-16T19:10:54.613Z,6.30
2023-04-16T19:13:21.301Z,8.80
2023-04-16T19:15:47.876Z,7.30
2023-04-16T19:18:14.375Z,7.00
2023-04-16T19:20:40.942Z,5.90
2023-04-16T19:23:09.166Z,7.00
2023-04-16T19:25:36.520Z,6.80
2023-04-16T19:28:03.886Z,6.40
2023-04-16T19:30:31.192Z,6.40
2023-04-16T19:32:57.890Z,6.60
2023-04-16T19:35:24.459Z,7.70
2023-04-16T19:37:51.202Z,9.30
2023-04-16T19:40:17.832Z,8.70
2023-04-16T19:42:45.688Z,8.50
2023-04-16T19:45:12.378Z,7.60
2023-04-16T19:47:39.061Z,6.00
2023-04-16T19:50:06.521Z,7.20
2023-04-16T19:52:38.631Z,8.80
2023-04-16T19:55:06.821Z,11.40
2023-04-16T19:57:33.512Z,8.30
2023-04-16T20:00:00.293Z,6.40
2023-04-16T20:02:26.977Z,6.50
2023-04-16T20:04:53.683Z,7.40
2023-04-16T20:07:20.598Z,6.70
2023-04-16T20:09:47.259Z,8.60
2023-04-16T20:12:14.391Z,7.00
2023-04-16T20:14:41.974Z,8.50
2023-04-16T20:19:39.802Z,5.30
2023-04-16T20:22:06.680Z,11.30
2023-04-16T20:24:33.406Z,7.30
2023-04-16T20:27:00.118Z,7.90
2023-04-16T20:29:27.064Z,7.20
2023-04-16T20:31:53.528Z,6.60
2023-04-16T20:34:20.002Z,7.20
2023-04-16T20:36:46.508Z,9.20
2023-04-16T20:39:13.115Z,8.00
2023-04-16T20:41:44.077Z,7.40
2023-04-16T20:44:18.120Z,6.50
2023-04-16T20:46:49.435Z,8.40
2023-04-16T20:49:17.636Z,8.40
2023-04-16T20:51:44.205Z,8.20
2023-04-16T20:54:11.015Z,7.50
2023-04-16T20:56:37.519Z,8.40
2023-04-16T20:59:04.124Z,8.80
2023-04-16T21:01:30.928Z,10.90
2023-04-16T21:03:57.757Z,8.70
2023-04-16T21:06:25.033Z,10.90
2023-04-16T21:08:51.572Z,9.40
2023-04-16T21:11:18.140Z,9.70
2023-04-16T21:13:44.871Z,8.60
2023-04-16T21:16:12.444Z,7.60
2023-04-16T21:18:39.137Z,6.80
2023-04-16T21:21:06.028Z,8.30
2023-04-16T21:23:32.476Z,9.20
2023-04-16T21:25:58.918Z,8.70
2023-04-16T21:28:25.352Z,8.20
